ENSB/LYR METAR and TAF weather

Enter ICAO airport designator
Station Type Date Time Source
ENSB METAR 2019/10/16 19:50 UTC NOAA

ENSB 161950Z 19011KT 170V230 9999 FEW020 SCT035 M01/M06 Q1009 RMK WIND 1400FT 21013KT


Station Type Date Time Source
ENSB Decoded METAR 2019/10/16 19:50 UTC NOAA

Svalbard Lufthavn, Norway (ENSB) 78-15N 015-28E 29M
Oct 16, 2019 - 03:50 PM EDT / 2019.10.16 1950 UTC
Wind: from the S (190 degrees) at 13 MPH (11 KT) (direction variable):0
Visibility: greater than 7 mile(s):0
Sky conditions: partly cloudy
Temperature: 30 F (-1 C)
Windchill: 19 F (-7 C):1
Dew Point: 21 F (-6 C)
Relative Humidity: 68%
Pressure (altimeter): 29.80 in. Hg (1009 hPa)
ob: ENSB 161950Z 19011KT 170V230 9999 FEW020 SCT035 M01/M06 Q1009 RMK WIND 1400FT 21013KT
cycle: 20

Station Type Date Time Source
ENSB TAF 2019/10/16 18:57 UTC NOAA

TAF ENSB 161700Z 1618/1718 12008KT 9999 FEW010 BKN030
TEMPO 1618/1706 23015KT PROB40 1618/1624 3500 -SHSN VV009

Example: see airport list